Kapalua Airport Lahaina US
ICAO: PHJH
IATA:
Category: Medium
Scheduled Services:

Elevation: 256 ft
TransAlt. 0 ft.

Airport Communications:
AWOS:118.525
MAUI RDO:123.6
CTAF/UNICOM:122.7

PHJH Zoom In..

Runways:

(A) RW 02 length 3000 ft width 100 ft
---- / hdg 17

(B) RW 20 length 3000 ft width 100 ft
---- / hdg 197

Location; PHJH
Day. 22 / Time. 01.50 Zulu
* Altimeter: 30.03
* Temperature: 26° c. 78.8°f.
* Wind from: 030° Speed 12 kn with Gusts up to 21 kn.
Dewpoint: 18° c.
Visibility: 15 Statute Miles.
Clouds: Few 3500 ft.
Clouds: Broken 2000 ft.

PHJH 220150Z 03012G21KT 15SM FEW035 BKN200 26/18 A3003


Wind From 030°
Speed 12 kn.

 
 
jpsmedia.com for Web Design SOUNDCLOUD worldairports.se 2018   terms of use